Titonka, IA (50480)

2:40 AM CST on February 12, 2016 (GMT -0600)
KIATHOMP4 | | Change Station
CLOSE
Current Station
Personal Weather Station
Location: Thompson, IA
Elevation: 1210 ft
Nearby Weather Stations

Elev 1210 ft 43.35 °N, 93.81 °W | Updated 15 seconds ago

Overcast
Overcast
14.4 °F
Feels Like 5 °F
N
6.0
Wind Variable Wind from WNW
Gusts 6.9 mph

Today
High -- | Low -- °F
--% Chance of Precip.
Yesterday
High -- | Low -- °F
Precip. -- in
Pressure 30.20 in
Visibility 10.0 miles
Clouds Overcast 1900 ft
Windchill 5 °F
Dew Point 13 °F
Humidity 93%
Rainfall 0.00 in
Snow Depth Not available.
7:18 AM 5:42 PM
Waxing Crescent, 18% visible
METAR KAXA 120815Z AUTO 30010KT 10SM -SN OVC019 M09/M11 A3020 RMK AO2
Pressure 30.20 in
Visibility 10.0 miles
Clouds Overcast 1900 ft
Windchill 5 °F
Dew Point 13 °F
Humidity 93%
Rainfall 0.00 in
Snow Depth Not available.
7:18 AM 5:42 PM
Waxing Crescent, 18% visible
METAR KAXA 120815Z AUTO 30010KT 10SM -SN OVC019 M09/M11 A3020 RMK AO2

10-Day Weather Forecast

Almanac

Astronomy

Feb. 12, 2016 Rise Set
Actual Time
Civil Twilight
Nautical Twilight
Astronomical Twilight
Moon
Length of Visible Light
Length of Day
Tomorrow will be .
, % of the Moon is Illuminated

Today's Extremes

State Highs State Lows

Community

WunderPhotos

Upload Photos

1,892,284 photos uploaded!

WunderBlog® & News

Nearby

Air Quality

  Air Quality AQ Index Pollutant
Not available.

Snow Depth

Station Depth Elevation

Earthquake Activity

City Distance Mag. Time & Date
Minimum magnitude displayed is 2.5.

Coastal Water Temperatures

Place Temperature

Stations

Nearby Weather Stations

Station Location Temp. Windchill Dew Point Humidity Wind Precip. Elev Updated Type
                   

Watches & Warnings

There are currently no watches in effect.